M I D A S
Marine Information and Data Acquisition System
Tripno 1118 of the Zeeleeuw from 2006-06-29 07:09:02 to 2006-06-29 13:32:01
Back to CruiseResearch ActivitiesStationsMapUnderway DataData graphs

EquipmentUnitsComment
TimeDGPSUTC
LatitudeDGPSDM.mWGS84
LongitudeDGPSDM.mWGS84
HeadingGyrodeg 
SOGDGPSknotsSpeed over ground
COGDGPSdegCourse over ground
DepthEcho soundermeters200 kHz
Missing or incorrect values are displayed as -999
Navigation data collected by the RV Zeeleeuw from 2006-06-29 07:06:38 to 2006-06-29 13:42:49
Time Latitude Longitude Heading SOG COG Depth
2006-06-29 07:07:43 51°13.616 2°56.048 117.3 2.9 297 -999
2006-06-29 07:08:44 51°13.642 2°55.961 117.1 4.4 296 -999
2006-06-29 07:09:43 51°13.678 2°55.842 114.2 4.7 292 -999
2006-06-29 07:10:42 51°13.694 2°55.766 90.6 0.9 290 10.9
2006-06-29 07:11:44 51°13.703 2°55.771 40.3 0.2 334 11.8
2006-06-29 07:12:43 51°13.699 2°55.76 12.5 0.8 352 -999
2006-06-29 07:13:44 51°13.734 2°55.73 325.3 4 324 10.3
2006-06-29 07:14:44 51°13.832 2°55.628 334.8 7.9 333 9.9
2006-06-29 07:15:44 51°13.959 2°55.537 339.4 8.6 336 10.1
2006-06-29 07:16:44 51°14.095 2°55.442 338.8 9 336 9.9
2006-06-29 07:17:44 51°14.226 2°55.313 324.5 10.2 320 9.8
2006-06-29 07:18:43 51°14.351 2°55.094 313.1 12.1 310 9.7
2006-06-29 07:19:44 51°14.456 2°54.802 296.8 13.1 287 10
2006-06-29 07:20:44 51°14.45 2°54.444 265 13.8 260 10.5
2006-06-29 07:21:44 51°14.354 2°54.114 242.6 13.8 240 8.5
2006-06-29 07:22:44 51°14.225 2°53.809 233.3 13.9 232 8.4
2006-06-29 07:23:43 51°14.104 2°53.503 243.5 14 244 8.6
2006-06-29 07:24:44 51°13.981 2°53.182 239.5 14 236 8.9
2006-06-29 07:25:43 51°13.859 2°52.873 239.5 13.9 238 9.1
2006-06-29 07:26:42 51°13.73 2°52.574 236.8 13.8 237 9.2
2006-06-29 07:27:44 51°13.623 2°52.231 247.8 14 245 9.3
2006-06-29 07:28:44 51°13.518 2°51.9 243.1 14 240 9.5
2006-06-29 07:29:44 51°13.401 2°51.578 243.7 14 243 9.5
2006-06-29 07:30:43 51°13.293 2°51.257 240.6 14 239 9.7
2006-06-29 07:31:44 51°13.168 2°50.937 242.6 14 241 9.8
2006-06-29 07:32:43 51°13.059 2°50.616 242.7 14.1 240 9.9
2006-06-29 07:33:44 51°12.933 2°50.296 240.6 14 240 9.9
2006-06-29 07:34:44 51°12.822 2°49.975 242.3 14 241 10.1
2006-06-29 07:35:44 51°12.711 2°49.648 242.7 14.1 240 10.2
2006-06-29 07:36:44 51°12.598 2°49.322 242.2 13.9 239 10.3
2006-06-29 07:37:43 51°12.484 2°49.004 242.9 14 241 10.3
2006-06-29 07:38:44 51°12.362 2°48.679 239.3 14.1 239 10.3
2006-06-29 07:39:44 51°12.248 2°48.356 242.6 14 241 10.4
2006-06-29 07:40:44 51°12.132 2°48.034 241.3 14.1 241 10.3
2006-06-29 07:41:44 51°12.016 2°47.71 239.5 14.2 240 10.2
2006-06-29 07:42:44 51°11.899 2°47.382 241 14.1 240 10.1
2006-06-29 07:43:44 51°11.785 2°47.052 242.5 14.2 240 9.9
2006-06-29 07:44:44 51°11.661 2°46.733 237.5 14.2 238 9.5
2006-06-29 07:45:43 51°11.552 2°46.407 243.9 14.2 243 9.5
2006-06-29 07:46:44 51°11.453 2°46.056 247.8 14.2 247 9.5
2006-06-29 07:47:44 51°11.352 2°45.717 245.7 14.1 246 9.4
2006-06-29 07:48:44 51°11.276 2°45.364 255.8 14.1 255 9.4
2006-06-29 07:49:43 51°11.21 2°45.007 256 14.3 253 9.8
2006-06-29 07:50:44 51°11.138 2°44.641 254.1 14.3 251 9.8
2006-06-29 07:51:44 51°11.064 2°44.28 252.8 14.2 250 9.9
2006-06-29 07:52:44 51°10.992 2°43.92 254.7 14.2 255 10
2006-06-29 07:53:44 51°10.92 2°43.564 254.4 14.1 252 10
2006-06-29 07:54:44 51°10.837 2°43.217 252.6 14 253 10
2006-06-29 07:55:44 51°10.755 2°42.868 248.6 14.1 246 9.9
2006-06-29 07:56:44 51°10.673 2°42.518 253.2 14 250 9.9
2006-06-29 07:57:44 51°10.595 2°42.165 249.3 14 248 10
2006-06-29 07:58:43 51°10.513 2°41.822 253.1 14.3 250 9.9
2006-06-29 07:59:44 51°10.431 2°41.465 249.5 14.1 247 10.1
2006-06-29 08:00:44 51°10.347 2°41.117 251.6 14 249 10
2006-06-29 08:01:44 51°10.267 2°40.766 253.9 14.2 253 10
2006-06-29 08:02:44 51°10.191 2°40.414 252.5 14 250 10.2
2006-06-29 08:03:44 51°10.104 2°40.069 248.7 14 249 10.1
2006-06-29 08:04:43 51°10.044 2°39.718 258.9 14 256 10.3
2006-06-29 08:05:44 51°9.98 2°39.355 253.3 14 251 10.6
2006-06-29 08:06:44 51°9.918 2°38.998 259 14 257 11.3
2006-06-29 08:07:44 51°9.859 2°38.637 255.2 14.1 252 11.8
2006-06-29 08:08:44 51°9.802 2°38.274 261.3 14.2 257 12.6
2006-06-29 08:09:43 51°9.752 2°37.914 258.1 14.2 257 13.5
2006-06-29 08:10:44 51°9.71 2°37.538 264.6 14.2 261 14.5
2006-06-29 08:11:44 51°9.67 2°37.167 262.1 14.3 259 14.6
2006-06-29 08:12:44 51°9.63 2°36.795 262 14.3 259 14.6
2006-06-29 08:13:44 51°9.609 2°36.42 273.6 14.1 271 15
2006-06-29 08:14:44 51°9.623 2°36.045 281.2 14.2 277 15.9
2006-06-29 08:15:44 51°9.705 2°35.702 310.9 13.8 303 16.4
2006-06-29 08:16:44 51°9.872 2°35.472 337.5 13.2 329 16.6
2006-06-29 08:17:44 51°10.071 2°35.375 2.4 12.1 354 9.8
2006-06-29 08:18:44 51°10.257 2°35.464 30.7 11.8 25 9.9
2006-06-29 08:19:44 51°10.434 2°35.602 31.1 11.9 24 9.2
2006-06-29 08:20:44 51°10.608 2°35.742 33.8 11.7 27 8.9
2006-06-29 08:21:44 51°10.788 2°35.863 27.4 11.8 22 9.3
2006-06-29 08:22:44 51°10.955 2°36.02 37.8 11.6 32 9.4
2006-06-29 08:23:44 51°11.122 2°36.179 37.8 11.6 33 9.3
2006-06-29 08:24:44 51°11.285 2°36.346 37.7 11.7 33 9.6
2006-06-29 08:25:44 51°11.453 2°36.501 32.8 11.7 27 9.8
2006-06-29 08:26:44 51°11.617 2°36.661 38.4 11.6 32 9.4
2006-06-29 08:27:43 51°11.781 2°36.815 38.9 11.6 34 9.5
2006-06-29 08:28:43 51°11.942 2°36.983 38.5 11.6 33 9.5
2006-06-29 08:29:44 51°12.109 2°37.149 37.5 11.6 31 9.6
2006-06-29 08:30:44 51°12.274 2°37.308 37.4 11.7 32 9.9
2006-06-29 08:31:44 51°12.438 2°37.474 37.2 11.7 32 10.3
2006-06-29 08:32:44 51°12.605 2°37.633 36.2 11.7 31 10.6
2006-06-29 08:33:44 51°12.771 2°37.796 36.5 11.7 31 11.1
2006-06-29 08:34:44 51°12.939 2°37.95 37.9 11.7 32 11.7
2006-06-29 08:35:44 51°13.108 2°38.103 35.5 11.7 29 12.2
2006-06-29 08:36:44 51°13.274 2°38.264 39.3 11.7 32 12.7
2006-06-29 08:37:44 51°13.445 2°38.411 36.1 11.7 29 12.8
2006-06-29 08:38:44 51°13.612 2°38.565 37.3 11.6 29 12.7
2006-06-29 08:39:43 51°13.776 2°38.715 37.1 11.5 28 12.1
2006-06-29 08:40:44 51°13.954 2°38.843 27.6 11.7 17 11.5
2006-06-29 08:41:44 51°14.152 2°38.848 358.8 12.4 345 10
2006-06-29 08:42:44 51°14.353 2°38.804 12.6 12.2 2 15.5
2006-06-29 08:43:44 51°14.554 2°38.84 18.1 12.1 9 16
2006-06-29 08:44:43 51°14.746 2°38.896 21 11.9 11 15.3
2006-06-29 08:45:43 51°14.941 2°38.963 22 12 13 15.9
2006-06-29 08:46:44 51°15.137 2°39.039 22.1 12 14 16.6
2006-06-29 08:47:44 51°15.328 2°39.127 24.3 11.9 16 17.1
2006-06-29 08:48:44 51°15.519 2°39.211 24 12 16 17.3
2006-06-29 08:49:44 51°15.708 2°39.302 24.8 11.9 17 17.8
2006-06-29 08:50:43 51°15.894 2°39.389 23.8 11.9 15 18.1
2006-06-29 08:51:44 51°16.087 2°39.475 24.6 11.9 16 18
2006-06-29 08:52:44 51°16.278 2°39.558 25.3 11.8 16 18.1
2006-06-29 08:53:44 51°16.467 2°39.639 24 11.8 14 17.9
2006-06-29 08:54:44 51°16.658 2°39.714 24.8 11.7 15 16.8
2006-06-29 08:55:43 51°16.845 2°39.788 22.9 11.8 13 16.5
2006-06-29 08:56:43 51°17.031 2°39.876 29.1 11.7 19 15.6
2006-06-29 08:57:43 51°17.211 2°39.987 33.4 11.5 23 13.8
2006-06-29 08:58:43 51°17.389 2°40.101 34.1 11.5 25 14
2006-06-29 08:59:43 51°17.562 2°40.228 35.4 11.5 25 13.2
2006-06-29 09:00:43 51°17.738 2°40.348 31.8 11.5 21 11.9
2006-06-29 09:01:43 51°17.911 2°40.472 33.9 11.4 22 11.7
2006-06-29 09:02:43 51°18.085 2°40.596 34.3 11.5 24 14.7
2006-06-29 09:03:44 51°18.262 2°40.723 34.8 11.5 25 17.9
2006-06-29 09:04:43 51°18.431 2°40.844 32.7 11.4 21 14
2006-06-29 09:05:44 51°18.605 2°40.971 34 11.2 23 12.9
2006-06-29 09:06:44 51°18.776 2°41.089 36.3 11.3 26 15
2006-06-29 09:07:43 51°18.945 2°41.214 33.3 11.5 24 17.4
2006-06-29 09:08:44 51°19.119 2°41.345 34.8 11.4 25 15.6
2006-06-29 09:09:43 51°19.29 2°41.468 34.4 11.5 25 19
2006-06-29 09:10:44 51°19.466 2°41.595 34.1 11.5 24 19
2006-06-29 09:11:44 51°19.639 2°41.724 34.1 11.5 25 20.1
2006-06-29 09:12:44 51°19.81 2°41.852 34.4 11.4 24 19.3
2006-06-29 09:13:44 51°19.982 2°41.976 35 11.4 25 18.9
2006-06-29 09:14:44 51°20.137 2°42.128 54.2 10.6 53 19.3
2006-06-29 09:15:44 51°20.136 2°42.402 104.1 11.2 109 22.3
2006-06-29 09:16:44 51°20.018 2°42.643 136.2 12.2 147 23.6
2006-06-29 09:17:44 51°19.805 2°42.706 176.6 13.9 186 24.2
2006-06-29 09:18:44 51°19.577 2°42.642 184.7 14.1 189 23.7
2006-06-29 09:19:44 51°19.347 2°42.57 185.3 14 189 22.7
2006-06-29 09:20:44 51°19.119 2°42.487 187.8 13.9 192 22.3
2006-06-29 09:21:44 51°18.892 2°42.415 188.4 13.9 191 22.5
2006-06-29 09:22:44 51°18.665 2°42.335 189.9 14.1 192 22.5
2006-06-29 09:23:44 51°18.438 2°42.259 187.9 14 191 22.3
2006-06-29 09:24:43 51°18.215 2°42.183 187.2 13.9 190 22.7
2006-06-29 09:25:44 51°17.985 2°42.108 189.1 13.9 192 22.9
2006-06-29 09:26:44 51°17.757 2°42.04 187.6 13.7 190 22.7
2006-06-29 09:27:44 51°17.53 2°41.97 188 14.1 191 22.6
2006-06-29 09:28:44 51°17.304 2°41.893 186.4 13.9 190 22.4
2006-06-29 09:29:44 51°17.075 2°41.821 189.8 13.8 191 21
2006-06-29 09:30:44 51°16.848 2°41.754 187.9 13.7 190 18.7
2006-06-29 09:31:44 51°16.621 2°41.683 188.7 13.6 190 15.9
2006-06-29 09:32:44 51°16.395 2°41.621 188.6 14 190 13.8
2006-06-29 09:33:44 51°16.17 2°41.562 187.8 13.6 189 12.2
2006-06-29 09:34:44 51°15.945 2°41.504 187.2 13.8 189 11
2006-06-29 09:35:44 51°15.721 2°41.448 185.8 13.8 187 9.9
2006-06-29 09:36:43 51°15.499 2°41.417 185 13.5 187 9.7
2006-06-29 09:37:43 51°15.273 2°41.388 178.7 13.5 181 10.1
2006-06-29 09:38:44 51°15.042 2°41.396 178.6 13.7 182 11.6
2006-06-29 09:39:44 51°14.815 2°41.39 173.4 13.6 176 12.3
2006-06-29 09:40:44 51°14.592 2°41.418 168.4 13.4 172 12.7
2006-06-29 09:41:44 51°14.371 2°41.471 164 13.2 171 13
2006-06-29 09:42:44 51°14.176 2°41.603 137 12.2 140 15.5
2006-06-29 09:43:44 51°14.093 2°41.864 94.5 10.8 95 16.2
2006-06-29 09:44:44 51°14.132 2°42.14 72.5 10.8 71 15.8
2006-06-29 09:45:44 51°14.181 2°42.418 76 11 75 15.7
2006-06-29 09:46:44 51°14.231 2°42.696 75.5 10.9 75 15.7
2006-06-29 09:47:44 51°14.279 2°42.976 74.3 10.9 75 15.4
2006-06-29 09:48:44 51°14.326 2°43.257 76.1 11 76 15.3
2006-06-29 09:49:44 51°14.38 2°43.536 70.3 11 69 15.2
2006-06-29 09:50:44 51°14.438 2°43.812 74.8 11 76 14.8
2006-06-29 09:51:44 51°14.488 2°44.091 72.8 10.9 72 14.1
2006-06-29 09:52:44 51°14.538 2°44.37 74 10.9 73 13.6
2006-06-29 09:53:44 51°14.59 2°44.649 75 11 74 13
2006-06-29 09:54:44 51°14.639 2°44.931 75.5 11.1 76 12.1
2006-06-29 09:55:44 51°14.69 2°45.216 73.1 11.1 73 11.2
2006-06-29 09:56:44 51°14.739 2°45.501 74.2 11.3 75 10.3
2006-06-29 09:57:43 51°14.795 2°45.779 72.2 11.2 73 9.7
2006-06-29 09:58:44 51°14.842 2°46.069 76.7 11.1 77 8.8
2006-06-29 09:59:44 51°14.895 2°46.35 70.4 11.1 71 8.6
2006-06-29 10:00:44 51°14.941 2°46.636 77 11.2 78 8.4
2006-06-29 10:01:43 51°14.989 2°46.915 70.4 11 69 8.4
2006-06-29 10:02:44 51°15.037 2°47.205 76.8 11.2 75 8.6
2006-06-29 10:03:44 51°15.087 2°47.494 72.7 11.3 72 9.2
2006-06-29 10:04:44 51°15.142 2°47.777 76 11.2 77 9.7
2006-06-29 10:05:43 51°15.185 2°48.062 73.6 11.1 73 10.8
2006-06-29 10:06:44 51°15.229 2°48.357 76.3 11.2 77 11.9
2006-06-29 10:07:44 51°15.275 2°48.649 76.8 11.3 76 12.3
2006-06-29 10:08:44 51°15.321 2°48.935 75.2 11.1 76 12.3
2006-06-29 10:09:44 51°15.365 2°49.222 73.5 11.2 74 12.4
2006-06-29 10:10:44 51°15.411 2°49.51 75.7 11.2 77 12.3
2006-06-29 10:11:44 51°15.454 2°49.798 75.1 11 76 12.4
2006-06-29 10:12:44 51°15.5 2°50.079 74.5 10.9 75 12.3
2006-06-29 10:13:44 51°15.542 2°50.358 75.8 10.8 76 12.2
2006-06-29 10:14:44 51°15.589 2°50.635 74.4 10.8 75 12.1
2006-06-29 10:15:44 51°15.642 2°50.91 71.1 10.8 72 12.1
2006-06-29 10:16:44 51°15.697 2°51.186 73 10.9 73 12.1
2006-06-29 10:17:44 51°15.745 2°51.466 71.9 11 72 12
2006-06-29 10:18:44 51°15.801 2°51.744 73 11 73 11.9
2006-06-29 10:19:44 51°15.855 2°52.023 72.9 11 74 11.8
2006-06-29 10:20:44 51°15.908 2°52.301 71.6 11 73 11.6
2006-06-29 10:21:44 51°15.96 2°52.579 75.2 10.9 77 11.5
2006-06-29 10:22:44 51°16.009 2°52.856 73.1 10.9 74 11.3
2006-06-29 10:23:44 51°16.058 2°53.133 71.8 10.9 72 11.1
2006-06-29 10:24:44 51°16.101 2°53.391 75.9 8 79 11.1
2006-06-29 10:25:44 51°16.124 2°53.561 71.9 5.9 77 11
2006-06-29 10:26:44 51°16.146 2°53.702 72.1 4.9 77 11
2006-06-29 10:27:44 51°16.157 2°53.815 73.5 4 82 10.9
2006-06-29 10:28:45 51°16.163 2°53.917 73 3.6 83 10.8
2006-06-29 10:29:44 51°16.169 2°54.007 72.3 3.4 84 10.7
2006-06-29 10:30:44 51°16.175 2°54.097 72 3.4 81 10.7
2006-06-29 10:31:44 51°16.18 2°54.188 73.3 3.4 85 10.7
2006-06-29 10:32:43 51°16.189 2°54.275 71.6 3.4 80 10.7
2006-06-29 10:33:44 51°16.196 2°54.368 74.4 3.5 85 10.8
2006-06-29 10:34:44 51°16.202 2°54.459 74.1 3.4 83 10.7
2006-06-29 10:35:44 51°16.209 2°54.548 73.3 3.3 84 10.9
2006-06-29 10:36:44 51°16.215 2°54.635 73.2 3.3 86 10.9
2006-06-29 10:37:43 51°16.222 2°54.717 68.4 3.1 77 10.6
2006-06-29 10:38:44 51°16.245 2°54.783 47.4 2.7 38 10.7
2006-06-29 10:39:44 51°16.292 2°54.775 359.2 3.5 321 10.7
2006-06-29 10:40:44 51°16.309 2°54.657 287.7 5.4 263 10.9
2006-06-29 10:41:44 51°16.272 2°54.537 238.7 4.7 234 10.9
2006-06-29 10:42:43 51°16.222 2°54.457 209.7 4.1 220 10.9
2006-06-29 10:43:44 51°16.168 2°54.391 210.5 4.2 222 10.8
2006-06-29 10:44:43 51°16.131 2°54.276 283.2 5.3 265 10.7
2006-06-29 10:45:44 51°16.158 2°54.173 357.8 3.2 319 10.8
2006-06-29 10:46:44 51°16.182 2°54.18 63.4 2 65 10.9
2006-06-29 10:47:44 51°16.219 2°54.242 46.9 3.5 44 10.8
2006-06-29 10:48:44 51°16.227 2°54.259 49.3 0.4 217 10.8
2006-06-29 10:49:43 51°16.221 2°54.255 43 0.5 211 11
2006-06-29 10:50:44 51°16.215 2°54.249 44.1 0.4 216 10.9
2006-06-29 10:51:44 51°16.209 2°54.244 44.7 0.4 188 11
2006-06-29 10:52:44 51°16.204 2°54.242 45.5 0.4 188 10.9
2006-06-29 10:53:44 51°16.2 2°54.239 39 0.2 248 10.9
2006-06-29 10:54:44 51°16.202 2°54.227 22.2 0.7 299 10.9
2006-06-29 10:55:44 51°16.207 2°54.208 16.7 0.9 292 10.9
2006-06-29 10:56:44 51°16.212 2°54.188 19.9 0.7 295 10.9
2006-06-29 10:57:44 51°16.217 2°54.172 24.3 0.6 296 10.9
2006-06-29 10:58:43 51°16.221 2°54.157 26.6 0.6 294 11
2006-06-29 10:59:44 51°16.226 2°54.144 27.8 0.5 295 10.9
2006-06-29 11:00:44 51°16.23 2°54.132 27.1 0.5 303 11
2006-06-29 11:01:44 51°16.234 2°54.119 24.5 0.6 303 11
2006-06-29 11:02:44 51°16.24 2°54.104 22 0.7 303 11.1
2006-06-29 11:03:44 51°16.247 2°54.084 18.4 0.9 300 11
2006-06-29 11:04:45 51°16.254 2°54.062 19.5 0.8 300 11.1
2006-06-29 11:05:44 51°16.261 2°54.044 25.3 0.7 298 11.2
2006-06-29 11:06:44 51°16.265 2°54.031 31.3 0.5 301 11.1
2006-06-29 11:07:44 51°16.269 2°54.022 34.7 0.3 304 11.2
2006-06-29 11:08:44 51°16.272 2°54.015 34.8 0.3 308 11.1
2006-06-29 11:09:44 51°16.276 2°54.008 29.1 0.5 307 11.2
2006-06-29 11:10:44 51°16.311 2°54 9.4 4.5 354 11.2
2006-06-29 11:11:44 51°16.407 2°53.946 348.7 6.9 334 11.3
2006-06-29 11:12:44 51°16.509 2°53.835 336.9 7.6 322 11.4
2006-06-29 11:13:44 51°16.595 2°53.679 318.6 8.1 304 11.5
2006-06-29 11:14:44 51°16.673 2°53.501 318.9 8.2 306 11.3
2006-06-29 11:15:44 51°16.756 2°53.33 319.4 8.2 307 11.1
2006-06-29 11:16:44 51°16.838 2°53.157 320.5 8.1 308 9.9
2006-06-29 11:17:44 51°16.92 2°52.99 320.8 8 309 8.5
2006-06-29 11:18:44 51°17.004 2°52.826 322.2 7.9 310 9.6
2006-06-29 11:19:44 51°17.094 2°52.676 329.5 7.8 316 9.8
2006-06-29 11:20:44 51°17.19 2°52.543 333.1 7.6 320 9.8
2006-06-29 11:21:44 51°17.289 2°52.412 332.7 7.7 319 10.3
2006-06-29 11:22:44 51°17.386 2°52.278 332.5 7.7 320 10.4
2006-06-29 11:23:44 51°17.484 2°52.148 332.6 7.7 320 10.6
2006-06-29 11:24:44 51°17.582 2°52.014 332.4 7.7 320 10.6
2006-06-29 11:25:43 51°17.679 2°51.886 333.2 7.7 321 10.3
2006-06-29 11:26:44 51°17.78 2°51.752 332.3 7.7 320 10.1
2006-06-29 11:27:43 51°17.876 2°51.619 331.5 7.8 319 10.4
2006-06-29 11:28:44 51°17.976 2°51.482 333.2 7.7 321 10.9
2006-06-29 11:29:44 51°18.079 2°51.356 334.6 7.8 322 11.6
2006-06-29 11:30:44 51°18.181 2°51.229 335.8 7.7 325 12.4
2006-06-29 11:31:44 51°18.294 2°51.172 7.2 6.9 357 13
2006-06-29 11:32:44 51°18.396 2°51.232 40.7 6.6 40 13.3
2006-06-29 11:33:44 51°18.459 2°51.374 62.3 6.7 64 13.3
2006-06-29 11:34:45 51°18.516 2°51.549 62.7 8.6 62 13.1
2006-06-29 11:35:44 51°18.586 2°51.76 62.8 9.4 63 12.8
2006-06-29 11:36:44 51°18.658 2°51.985 64 9.5 64 12.8
2006-06-29 11:37:45 51°18.732 2°52.209 62.2 9.4 62 12.5
2006-06-29 11:38:44 51°18.803 2°52.429 61.6 9.4 61 12.3
2006-06-29 11:39:44 51°18.876 2°52.649 63.8 9.4 64 12.3
2006-06-29 11:40:44 51°18.945 2°52.872 63.9 9.4 64 12.1
2006-06-29 11:41:44 51°19.015 2°53.094 64.4 9.3 65 12.2
2006-06-29 11:42:44 51°19.083 2°53.315 62.3 9.3 62 12.1
2006-06-29 11:43:45 51°19.156 2°53.54 63.1 9.3 63 12.2
2006-06-29 11:44:45 51°19.227 2°53.762 63.4 9.4 64 12.3
2006-06-29 11:45:44 51°19.294 2°53.983 62.6 9.4 63 12.2
2006-06-29 11:46:44 51°19.363 2°54.205 62.8 9.3 63 12.2
2006-06-29 11:47:45 51°19.433 2°54.432 63.8 9.3 64 12.2
2006-06-29 11:48:45 51°19.501 2°54.657 64.1 9.4 65 12.3
2006-06-29 11:49:44 51°19.569 2°54.877 62.7 9.4 63 12.4
2006-06-29 11:50:45 51°19.639 2°55.108 63.7 9.5 63 12.3
2006-06-29 11:51:45 51°19.711 2°55.334 62.5 9.6 64 12.5
2006-06-29 11:52:45 51°19.781 2°55.563 62.1 9.6 63 12.4
2006-06-29 11:53:45 51°19.852 2°55.79 62.6 9.6 64 12.3
2006-06-29 11:54:45 51°19.926 2°56.014 57.3 9.4 56 12.2
2006-06-29 11:55:45 51°20.034 2°56.194 45.1 9.4 44 12.2
2006-06-29 11:56:44 51°20.142 2°56.374 47.9 9.5 46 12.3
2006-06-29 11:57:45 51°20.262 2°56.547 44 9.6 42 12.3
2006-06-29 11:58:44 51°20.374 2°56.721 46.3 9.5 45 12.4
2006-06-29 11:59:45 51°20.492 2°56.897 44.3 9.5 43 12.5
2006-06-29 12:00:44 51°20.603 2°57.07 45 9.5 43 12.5
2006-06-29 12:01:44 51°20.717 2°57.248 46 9.6 44 12.6
2006-06-29 12:02:44 51°20.833 2°57.419 44.3 9.5 44 12.7
2006-06-29 12:03:45 51°20.833 2°57.652 120.4 9.9 133 12.4
2006-06-29 12:04:45 51°20.683 2°57.81 145.3 11.3 153 12.3
2006-06-29 12:05:45 51°20.508 2°57.892 165.1 10.8 170 12
2006-06-29 12:06:45 51°20.328 2°57.887 185 10.7 186 11.7
2006-06-29 12:07:44 51°20.16 2°57.798 207.2 10.9 208 11.5
2006-06-29 12:08:44 51°20.02 2°57.62 233.3 10.6 231 11.4
2006-06-29 12:09:44 51°19.919 2°57.391 240.5 10.6 236 11.4
2006-06-29 12:10:45 51°19.829 2°57.148 248.2 10.4 245 11.4
2006-06-29 12:11:44 51°19.756 2°56.902 250.4 10.4 244 11.5
2006-06-29 12:12:45 51°19.679 2°56.65 251.8 10.4 245 11.5
2006-06-29 12:13:45 51°19.62 2°56.391 258.3 10.5 251 11.5
2006-06-29 12:14:45 51°19.567 2°56.141 258.5 9.6 251 11.7
2006-06-29 12:15:45 51°19.512 2°55.903 257.3 9.5 250 11.8
2006-06-29 12:16:44 51°19.459 2°55.673 258.4 9.3 252 12
2006-06-29 12:17:44 51°19.407 2°55.442 256.6 9.2 249 12.3
2006-06-29 12:18:44 51°19.353 2°55.211 258 9.3 249 12.4
2006-06-29 12:19:44 51°19.303 2°54.98 258.3 9.2 251 12.4
2006-06-29 12:20:44 51°19.251 2°54.751 257.5 9.1 251 12.3
2006-06-29 12:21:44 51°19.202 2°54.522 257.8 9.2 250 12.4
2006-06-29 12:22:44 51°19.149 2°54.293 256.5 9.3 249 12.4
2006-06-29 12:23:44 51°19.099 2°54.061 257.7 9.2 251 12.5
2006-06-29 12:24:45 51°19.047 2°53.827 257.7 9.2 252 12.5
2006-06-29 12:25:44 51°19.001 2°53.6 257.7 9.1 251 12.6
2006-06-29 12:26:45 51°18.952 2°53.367 258.1 9.2 253 12.5
2006-06-29 12:27:45 51°18.906 2°53.136 258.4 9 254 12.5
2006-06-29 12:28:45 51°18.859 2°52.909 257.3 9 251 12.6
2006-06-29 12:29:45 51°18.811 2°52.68 258 9.1 252 12.8
2006-06-29 12:30:45 51°18.765 2°52.449 259.5 9.2 253 12.9
2006-06-29 12:31:45 51°18.724 2°52.239 260.9 7.4 252 13.2
2006-06-29 12:32:44 51°18.689 2°52.067 259.6 6.8 251 13.5
2006-06-29 12:33:45 51°18.654 2°51.899 260.2 6.5 252 13.8
2006-06-29 12:34:42 51°18.621 2°51.745 258 6.4 251 14
2006-06-29 12:35:44 51°18.584 2°51.579 258.1 6.4 251 14.2
2006-06-29 12:36:44 51°18.549 2°51.417 258.6 6.4 252 14.5
2006-06-29 12:37:44 51°18.514 2°51.256 259.1 6.4 252 14.6
2006-06-29 12:38:45 51°18.489 2°51.112 268.8 4.7 257 14.8
2006-06-29 12:39:45 51°18.477 2°51.015 283.1 2.7 259 14.8
2006-06-29 12:40:45 51°18.462 2°50.993 290.7 1.1 195 14.9
2006-06-29 12:41:45 51°18.441 2°50.983 276.8 1.3 199 14.8
2006-06-29 12:42:45 51°18.423 2°50.969 265.5 1.4 208 14.8
2006-06-29 12:43:45 51°18.404 2°50.95 270.4 1.3 214 14.7
2006-06-29 12:44:43 51°18.388 2°50.93 282 1.2 218 14.8
2006-06-29 12:45:45 51°18.376 2°50.898 302.5 1.5 254 14.7
2006-06-29 12:46:44 51°18.377 2°50.858 321.3 1.6 280 14.9
2006-06-29 12:47:44 51°18.382 2°50.818 324.9 1.5 277 14.9
2006-06-29 12:48:44 51°18.391 2°50.78 337.3 1.6 302 15
2006-06-29 12:49:45 51°18.402 2°50.742 333.1 1.7 295 15.1
2006-06-29 12:50:43 51°18.411 2°50.701 329.5 1.7 288 15.2
2006-06-29 12:51:45 51°18.422 2°50.66 333.7 1.5 296 15.3
2006-06-29 12:52:45 51°18.434 2°50.625 337.5 1.4 300 15.4
2006-06-29 12:53:45 51°18.447 2°50.595 339.8 1.4 304 15.5
2006-06-29 12:54:45 51°18.46 2°50.565 340.2 1.4 307 15.6
2006-06-29 12:55:44 51°18.473 2°50.537 339.2 1.4 305 15.6
2006-06-29 12:56:44 51°18.484 2°50.508 340 1.2 304 15.6
2006-06-29 12:57:44 51°18.496 2°50.48 339.2 1.3 303 15.7
2006-06-29 12:58:44 51°18.508 2°50.454 340.8 1.2 308 15.7
2006-06-29 12:59:44 51°18.52 2°50.433 346.1 0.9 316 15.8
2006-06-29 13:00:45 51°18.533 2°50.418 348.1 0.9 323 15.9
2006-06-29 13:01:44 51°18.546 2°50.405 345.9 1 331 15.9
2006-06-29 13:02:44 51°18.564 2°50.39 349.6 1.5 336 15.9
2006-06-29 13:03:45 51°18.609 2°50.394 21 4 24 16
2006-06-29 13:04:44 51°18.652 2°50.516 75.7 6.4 81 16
2006-06-29 13:05:44 51°18.611 2°50.699 119.8 8.5 123 15.9
2006-06-29 13:06:44 51°18.482 2°50.884 140.6 11.8 137 15.4
2006-06-29 13:07:44 51°18.317 2°51.092 143 13 141 14.6
2006-06-29 13:08:45 51°18.148 2°51.313 142.2 13 140 13.5
2006-06-29 13:09:44 51°17.979 2°51.518 148.4 13 146 12.2
2006-06-29 13:10:45 51°17.8 2°51.719 147.3 13 145 11.8
2006-06-29 13:11:45 51°17.622 2°51.917 147.1 12.9 147 12
2006-06-29 13:12:44 51°17.434 2°52.077 154.6 13.1 152 12.2
2006-06-29 13:13:44 51°17.241 2°52.229 157.4 12.8 156 12.1
2006-06-29 13:14:45 51°17.044 2°52.386 158.4 12.9 156 11.6
2006-06-29 13:15:44 51°16.851 2°52.531 157 13.1 152 11.7
2006-06-29 13:16:44 51°16.658 2°52.691 156.3 13.2 153 12.6
2006-06-29 13:17:44 51°16.466 2°52.853 157.6 13.1 156 13.5
2006-06-29 13:18:44 51°16.263 2°52.974 165.3 12.9 162 13.8
2006-06-29 13:19:44 51°16.058 2°53.073 165.4 12.9 162 13.7
2006-06-29 13:20:44 51°15.854 2°53.182 164.5 12.9 161 13.4
2006-06-29 13:21:45 51°15.648 2°53.296 164.4 12.9 161 12.8
2006-06-29 13:22:44 51°15.45 2°53.358 187.5 12.3 188 12.4
2006-06-29 13:23:44 51°15.244 2°53.384 166.6 12.7 164 12.1
2006-06-29 13:24:44 51°15.054 2°53.531 148 12.8 144 11.7
2006-06-29 13:25:44 51°14.902 2°53.772 137.3 13 133 11.3
2006-06-29 13:26:44 51°14.753 2°54.02 137.7 13 133 11.9
2006-06-29 13:27:44 51°14.608 2°54.273 131.3 12.9 130 13.6
2006-06-29 13:28:44 51°14.508 2°54.579 119.7 13.1 116 13.3
2006-06-29 13:29:44 51°14.417 2°54.879 121 12.5 116 12.8
2006-06-29 13:30:44 51°14.32 2°55.143 131.7 9.7 129 12.5
2006-06-29 13:31:44 51°14.232 2°55.312 137.3 7.7 137 12.6
2006-06-29 13:32:44 51°14.132 2°55.407 156.8 6.7 155 12.7
2006-06-29 13:33:44 51°14.032 2°55.48 158.4 6.6 156 12.7
2006-06-29 13:34:47 51°13.935 2°55.552 157.3 5.8 153 12.9
2006-06-29 13:35:48 51°13.849 2°55.615 157.4 5.3 157 -999
2006-06-29 13:36:48 51°13.777 2°55.679 145.1 4.8 143 -999
2006-06-29 13:37:48 51°13.723 2°55.767 130.5 4.6 129 -999
2006-06-29 13:38:48 51°13.678 2°55.865 126.2 4.6 126 -999
2006-06-29 13:39:48 51°13.642 2°55.957 120.9 3.7 119 -999
2006-06-29 13:40:49 51°13.617 2°56.038 113 3 112 -999
2006-06-29 13:41:48 51°13.605 2°56.088 112.6 0.6 118 -999
2006-06-29 13:42:48 51°13.601 2°56.096 114.2 0.2 123 -999